Time;durP1;ratioP1;P1;durP2;ratioP2;P2;SDS_P1;SDS_P2;PMS_P1;PMS_P2;Temp;Humidity;BMP_temperature;BMP_pressure;BME280_temperature;BME280_humidity;BME280_pressure;Samples;Min_cycle;Max_cycle;Signal;HPM_P1;HPM_P2
2022/12/02 00:02:22;;;;;;;1.83;1.33;;;4.70;99.90;;;4.45;67.99;95293.31;5085340;28;20438;-55
2022/12/02 00:04:55;;;;;;;1.60;1.50;;;4.60;99.90;;;4.44;68.35;95281.22;5086321;28;20469;-55
2022/12/02 00:07:22;;;;;;;1.50;1.40;;;4.70;99.90;;;4.43;68.30;95279.53;5083815;28;20529;-54
2022/12/02 00:09:50;;;;;;;1.37;1.27;;;4.70;99.90;;;4.43;68.39;95276.91;5078704;28;20580;-55
2022/12/02 00:12:22;;;;;;;1.63;1.13;;;4.60;99.90;;;4.40;68.37;95279.69;5084129;28;20469;-56
2022/12/02 00:14:56;;;;;;;3.60;1.00;;;4.60;99.90;;;4.38;68.45;95286.78;5081808;28;20481;-56
2022/12/02 00:17:24;;;;;;;1.60;1.50;;;4.60;99.90;;;4.36;68.95;95281.66;5082727;28;20461;-56
2022/12/02 00:19:51;;;;;;;4.50;1.10;;;4.60;99.90;;;4.31;68.76;95281.94;5082807;28;21090;-56
2022/12/02 00:22:19;;;;;;;1.13;1.03;;;4.50;99.90;;;4.29;69.16;95286.41;5083444;28;20997;-55
2022/12/02 00:24:46;;;;;;;1.27;1.17;;;4.50;99.90;;;4.30;68.99;95284.63;5079795;28;20487;-55
2022/12/02 00:27:14;;;;;;;1.40;1.30;;;4.50;99.90;;;4.33;68.86;95286.22;5078971;28;20983;-54
2022/12/02 00:29:42;;;;;;;1.13;1.03;;;4.60;99.90;;;4.35;69.32;95281.75;5080112;28;20554;-55
2022/12/02 00:32:09;;;;;;;1.37;1.27;;;4.60;99.90;;;4.37;68.88;95285.09;5082528;28;21045;-57
2022/12/02 00:34:36;;;;;;;2.00;1.23;;;4.60;99.90;;;4.39;68.88;95285.88;5077758;28;20508;-56
2022/12/02 00:37:04;;;;;;;2.20;1.50;;;4.60;99.90;;;4.42;68.51;95283.06;5084771;28;20453;-56
2022/12/02 00:39:31;;;;;;;2.30;2.10;;;4.60;99.90;;;4.41;68.67;95286.59;5079588;28;20540;-55
2022/12/02 00:41:58;;;;;;;1.80;1.70;;;4.60;99.90;;;4.40;68.72;95282.31;5078889;28;20455;-54
2022/12/02 00:47:12;;;;;;;3.30;2.50;;;4.60;99.90;;;4.42;68.41;95277.88;5083670;28;20457;-54
2022/12/02 00:49:39;;;;;;;2.63;2.17;;;4.60;99.90;;;4.38;68.67;95279.78;5081854;28;20881;-55
2022/12/02 00:52:06;;;;;;;3.37;1.80;;;4.60;99.90;;;4.35;68.86;95279.16;5078973;28;21071;-56
2022/12/02 00:54:33;;;;;;;5.00;2.17;;;4.60;99.90;;;4.33;69.29;95275.81;5078041;28;20481;-55
2022/12/02 00:57:01;;;;;;;2.30;1.97;;;4.50;99.90;;;4.31;68.95;95284.53;5080010;28;20458;-57
2022/12/02 00:59:30;;;;;;;2.90;1.80;;;4.50;99.90;;;4.31;68.91;95275.91;5083196;28;20577;-56
2022/12/02 01:01:57;;;;;;;2.17;2.07;;;4.50;99.90;;;4.31;68.72;95279.34;5078403;28;20457;-57
2022/12/02 01:04:24;;;;;;;5.20;2.40;;;4.60;99.90;;;4.31;69.02;95274.13;5085314;28;20474;-56
2022/12/02 01:06:51;;;;;;;2.23;1.80;;;4.50;99.90;;;4.33;68.90;95263.63;5078727;28;20706;-54
2022/12/02 01:09:19;;;;;;;1.90;1.80;;;4.50;99.90;;;4.35;69.12;95266.13;5080620;28;20516;-56
2022/12/02 01:11:46;;;;;;;2.33;2.13;;;4.50;99.90;;;4.37;69.09;95265.13;5079139;28;20472;-57
2022/12/02 01:14:13;;;;;;;2.83;2.03;;;4.60;99.90;;;4.40;68.99;95264.09;5080046;28;21131;-56
2022/12/02 01:16:42;;;;;;;3.40;2.67;;;4.60;99.90;;;4.40;69.09;95259.72;5083394;28;20822;-56
2022/12/02 01:19:09;;;;;;;2.80;2.17;;;4.60;99.90;;;4.42;68.97;95272.66;5079207;28;20888;-55
2022/12/02 01:21:36;;;;;;;2.17;1.60;;;4.60;99.90;;;4.44;68.97;95260.38;5079061;28;20465;-56
2022/12/02 01:24:04;;;;;;;7.30;1.83;;;4.60;99.90;;;4.48;69.11;95261.88;5077793;28;20475;-55
2022/12/02 01:26:31;;;;;;;3.67;2.20;;;4.70;99.90;;;4.52;69.19;95267.72;5081894;28;20462;-54
2022/12/02 01:28:58;;;;;;;2.43;2.20;;;4.70;99.90;;;4.55;69.22;95273.56;5077521;28;20487;-54
2022/12/02 01:31:25;;;;;;;3.27;2.47;;;4.70;99.90;;;4.59;69.25;95267.25;5080479;28;20455;-55
2022/12/02 01:33:54;;;;;;;2.07;1.83;;;4.80;99.90;;;4.61;69.25;95262.78;5077060;28;20507;-55
2022/12/02 01:36:21;;;;;;;2.00;1.80;;;4.80;99.90;;;4.64;69.05;95262.59;5075039;28;20453;-55
2022/12/02 01:38:49;;;;;;;2.13;1.77;;;4.90;99.90;;;4.64;68.84;95259.97;5076469;28;20462;-54
2022/12/02 01:41:16;;;;;;;2.13;1.90;;;4.80;99.90;;;4.66;68.90;95265.97;5076146;28;20468;-55
2022/12/02 01:43:43;;;;;;;3.63;2.03;;;4.90;99.90;;;4.68;68.75;95258.06;5077687;28;20859;-54
2022/12/02 01:46:10;;;;;;;3.07;2.10;;;4.90;99.90;;;4.72;68.64;95253.47;5080766;28;20793;-55
2022/12/02 01:48:38;;;;;;;1.90;1.40;;;4.90;99.90;;;4.75;69.23;95258.50;5081635;28;20462;-55
2022/12/02 01:51:06;;;;;;;1.57;1.47;;;4.90;99.90;;;4.75;68.70;95258.50;5079558;28;20485;-56
2022/12/02 01:53:34;;;;;;;1.97;1.87;;;4.90;99.90;;;4.77;68.66;95267.06;5082519;28;20461;-56
2022/12/02 01:56:01;;;;;;;2.90;2.00;;;5.00;99.90;;;4.77;69.22;95265.31;5080410;28;20438;-54
2022/12/02 01:58:30;;;;;;;2.03;1.73;;;5.00;99.90;;;4.81;68.80;95268.53;5077807;28;20523;-58
2022/12/02 02:00:57;;;;;;;1.97;1.87;;;5.00;99.90;;;4.83;68.84;95264.91;5074206;28;20500;-56
2022/12/02 02:03:24;;;;;;;2.13;1.93;;;5.00;99.90;;;4.85;68.77;95263.03;5080537;28;20458;-56
2022/12/02 02:05:52;;;;;;;3.07;2.00;;;5.10;99.90;;;4.86;68.77;95263.88;5081029;28;20470;-56
2022/12/02 02:08:20;;;;;;;1.90;1.67;;;5.10;99.90;;;4.88;68.86;95275.06;5080587;28;20484;-56
2022/12/02 02:10:48;;;;;;;2.20;2.10;;;5.10;99.90;;;4.90;69.01;95274.97;5081568;28;20933;-54
2022/12/02 02:13:15;;;;;;;2.07;1.97;;;5.10;99.90;;;4.91;68.88;95274.88;5075166;28;21008;-55
2022/12/02 02:15:43;;;;;;;2.20;1.60;;;5.10;99.90;;;4.92;68.92;95276.53;5075854;28;20466;-56
2022/12/02 02:18:11;;;;;;;2.23;1.83;;;5.10;99.90;;;4.92;68.78;95273.09;5078171;28;20450;-56
2022/12/02 02:20:40;;;;;;;1.73;1.63;;;5.10;99.90;;;4.93;68.51;95272.16;5085404;28;20462;-56
2022/12/02 02:23:29;;;;;;;3.47;2.27;;;5.10;99.90;;;4.94;68.81;95277.28;5078223;28;20457;-56
2022/12/02 02:25:58;;;;;;;2.73;1.90;;;5.10;99.90;;;4.94;68.85;95282.50;5074030;28;20470;-54
2022/12/02 02:28:25;;;;;;;2.33;2.13;;;5.10;99.90;;;4.95;68.48;95281.53;5080882;28;20503;-56
2022/12/02 02:30:54;;;;;;;2.60;1.80;;;5.10;99.90;;;4.96;68.72;95282.41;5079319;28;20515;-55
2022/12/02 02:33:21;;;;;;;2.30;2.20;;;5.10;99.90;;;4.96;68.50;95285.84;5081619;28;20530;-56
2022/12/02 02:35:49;;;;;;;3.77;1.73;;;5.20;99.90;;;4.98;68.69;95286.56;5078925;28;20479;-54
2022/12/02 02:38:19;;;;;;;4.37;2.80;;;5.20;99.90;;;4.98;68.61;95290.97;5075681;28;20535;-53
2022/12/02 02:40:48;;;;;;;3.83;2.50;;;5.20;99.90;;;4.97;68.66;95282.31;5072170;28;21038;-57
2022/12/02 02:43:15;;;;;;;2.13;1.90;;;5.20;99.90;;;4.97;68.28;95287.53;5080927;28;20462;-56
2022/12/02 02:45:42;;;;;;;2.63;2.43;;;5.20;99.90;;;4.98;68.55;95290.97;5075881;28;20473;-54
2022/12/02 02:48:10;;;;;;;2.57;2.37;;;5.20;99.90;;;4.97;68.49;95290.13;5082531;28;20464;-53
2022/12/02 02:50:39;;;;;;;3.00;2.80;;;5.20;99.90;;;4.98;68.71;95291.78;5079401;28;20935;-53
2022/12/02 02:53:06;;;;;;;3.17;2.73;;;5.20;99.90;;;4.98;68.63;95294.38;5077548;28;20528;-56
2022/12/02 02:55:34;;;;;;;2.53;2.20;;;5.20;99.90;;;5.00;68.64;95294.28;5083602;28;20914;-57
2022/12/02 02:58:10;;;;;;;4.13;2.30;;;5.20;99.90;;;5.00;68.51;95295.16;5080090;28;20462;-56
2022/12/02 03:00:37;;;;;;;2.53;2.17;;;5.20;99.90;;;5.00;68.42;95289.09;5076762;28;20564;-54
2022/12/02 03:03:04;;;;;;;2.50;2.30;;;5.20;99.90;;;4.99;68.18;95293.47;5078515;28;20461;-56
2022/12/02 03:05:32;;;;;;;1.90;1.80;;;5.20;99.90;;;4.99;68.30;95293.47;5082634;28;20481;-55
2022/12/02 03:07:59;;;;;;;2.77;2.53;;;5.20;99.90;;;4.98;68.87;95290.97;5075639;28;20462;-55
2022/12/02 03:10:26;;;;;;;4.70;2.57;;;5.20;99.90;;;5.00;68.53;95289.94;5080193;28;20499;-56
2022/12/02 03:12:53;;;;;;;1.73;1.63;;;5.20;99.90;;;5.00;68.54;95284.72;5072532;28;20447;-55
2022/12/02 03:15:22;;;;;;;1.97;1.87;;;5.20;99.90;;;5.02;68.59;95290.66;5076893;28;20531;-55
2022/12/02 03:17:49;;;;;;;1.93;1.83;;;5.20;99.90;;;5.02;68.24;95293.28;5080777;28;20449;-56
2022/12/02 03:20:17;;;;;;;1.60;1.50;;;5.20;99.90;;;5.02;68.18;95292.44;5084358;28;20891;-55
2022/12/02 03:22:44;;;;;;;3.27;1.70;;;5.20;99.90;;;5.02;68.38;95293.28;5082044;28;20445;-56
2022/12/02 03:25:11;;;;;;;2.13;1.93;;;5.20;99.90;;;5.04;68.23;95303.59;5084339;28;20891;-55
2022/12/02 03:27:38;;;;;;;3.20;2.13;;;5.20;99.90;;;5.06;68.26;95303.50;5082016;28;20465;-59
2022/12/02 03:30:08;;;;;;;2.13;1.93;;;5.20;99.90;;;5.06;68.37;95300.91;5081310;28;21070;-55
2022/12/02 03:32:36;;;;;;;4.67;1.80;;;5.20;99.90;;;5.08;68.19;95301.63;5082128;28;20459;-55
2022/12/02 03:35:04;;;;;;;2.13;2.03;;;5.30;99.90;;;5.08;68.41;95306.84;5084426;28;21032;-57
2022/12/02 03:37:31;;;;;;;2.07;1.87;;;5.30;99.90;;;5.10;68.63;95313.66;5081358;28;20785;-56
2022/12/02 03:39:58;;;;;;;2.30;2.10;;;5.30;99.90;;;5.12;68.42;95305.75;5082487;28;20471;-56
2022/12/02 03:42:26;;;;;;;2.30;2.20;;;5.30;99.90;;;5.13;68.28;95312.63;5083403;28;20494;-55
2022/12/02 03:44:53;;;;;;;1.90;1.80;;;5.30;99.90;;;5.14;68.48;95307.31;5084499;28;20477;-57
2022/12/02 03:47:20;;;;;;;2.17;1.97;;;5.30;99.90;;;5.16;68.28;95312.44;5084910;28;20509;-56
2022/12/02 03:49:49;;;;;;;2.13;2.03;;;5.30;99.90;;;5.16;68.24;95302.03;5083872;28;20489;-52
2022/12/02 03:52:16;;;;;;;15.50;6.77;;;5.40;99.90;;;5.16;67.99;95315.06;5080502;28;20614;-56
2022/12/02 03:54:43;;;;;;;9.07;5.90;;;5.30;99.90;;;5.14;68.09;95314.28;5083339;28;20474;-55
2022/12/02 03:57:10;;;;;;;7.03;4.90;;;5.30;99.90;;;5.15;68.29;95315.97;5082042;28;20458;-55
2022/12/02 03:59:38;;;;;;;11.03;4.63;;;5.30;99.90;;;5.15;68.40;95308.97;5084022;28;20485;-57
2022/12/02 04:02:05;;;;;;;3.80;3.20;;;5.30;99.90;;;5.16;67.94;95313.28;5083423;28;20610;-56
2022/12/02 04:04:32;;;;;;;3.27;2.97;;;5.40;99.90;;;5.17;67.76;95312.34;5082320;28;21044;-54
2022/12/02 04:07:01;;;;;;;4.80;3.50;;;5.40;99.90;;;5.18;68.10;95323.59;5079949;28;20466;-55
2022/12/02 04:09:28;;;;;;;10.90;5.67;;;5.40;99.90;;;5.19;68.19;95320.06;5075126;28;20513;-56
2022/12/02 04:11:55;;;;;;;14.17;7.20;;;5.30;99.90;;;5.19;68.14;95320.06;5081912;28;20829;-55
2022/12/02 04:14:23;;;;;;;13.87;6.50;;;5.40;99.90;;;5.21;68.29;95324.25;5077715;28;20470;-55
2022/12/02 04:16:50;;;;;;;4.80;3.53;;;5.40;99.90;;;5.19;68.22;95320.91;5084958;28;20450;-57
2022/12/02 04:19:17;;;;;;;6.03;3.33;;;5.40;99.90;;;5.17;68.12;95325.38;5084239;28;20486;-54
2022/12/02 04:21:44;;;;;;;2.80;2.60;;;5.40;99.90;;;5.17;68.13;95328.00;5082873;28;20450;-56
2022/12/02 04:24:13;;;;;;;3.20;2.90;;;5.40;99.90;;;5.18;68.52;95336.66;5080335;28;20477;-54
2022/12/02 04:26:40;;;;;;;4.13;3.30;;;5.40;99.90;;;5.19;68.37;95331.34;5082849;28;20457;-55
2022/12/02 04:29:07;;;;;;;2.83;2.50;;;5.40;99.90;;;5.21;68.66;95331.25;5082732;28;20485;-54
2022/12/02 04:31:35;;;;;;;2.57;2.30;;;5.40;99.90;;;5.21;68.20;95329.47;5081719;28;20462;-55
2022/12/02 04:34:02;;;;;;;2.87;2.37;;;5.40;99.90;;;5.21;68.45;95326.84;5080060;28;20838;-56
2022/12/02 04:36:29;;;;;;;4.30;2.90;;;5.40;99.90;;;5.20;68.36;95316.53;5082453;28;20957;-56
2022/12/02 04:38:56;;;;;;;3.37;3.17;;;5.40;99.90;;;5.21;68.59;95320.81;5080888;28;20970;-55
2022/12/02 04:41:25;;;;;;;2.77;2.50;;;5.40;99.90;;;5.21;68.65;95320.81;5077876;28;20454;-56
2022/12/02 04:43:52;;;;;;;4.63;3.50;;;5.40;99.90;;;5.21;68.37;95323.41;5082596;28;20866;-57
2022/12/02 04:46:20;;;;;;;10.10;4.83;;;5.40;99.90;;;5.21;68.37;95324.25;5084911;28;20507;-54
2022/12/02 04:48:47;;;;;;;16.60;6.93;;;5.40;99.90;;;5.21;68.54;95328.63;5075729;28;20455;-54
2022/12/02 04:51:14;;;;;;;10.17;5.90;;;5.40;99.90;;;5.23;68.41;95326.75;5082123;28;20489;-56
2022/12/02 04:53:42;;;;;;;6.80;4.37;;;5.40;99.90;;;5.23;68.85;95326.75;5076761;28;20489;-56
2022/12/02 04:56:09;;;;;;;7.77;4.93;;;5.40;99.90;;;5.24;68.78;95333.66;5083451;28;20447;-55
2022/12/02 04:58:38;;;;;;;7.00;4.70;;;5.40;99.90;;;5.25;68.88;95340.56;5079015;28;20528;-55
2022/12/02 05:01:05;;;;;;;5.60;4.90;;;5.40;99.90;;;5.27;69.00;95341.28;5081729;28;20510;-54
2022/12/02 05:03:35;;;;;;;8.00;6.00;;;5.40;99.90;;;5.28;68.83;95329.91;5079489;28;20478;-57
2022/12/02 05:06:02;;;;;;;5.73;5.13;;;5.40;99.90;;;5.28;68.84;95337.72;5081981;28;20457;-56
2022/12/02 05:08:29;;;;;;;8.37;5.30;;;5.50;99.90;;;5.30;68.90;95335.88;5079047;28;20455;-55
2022/12/02 05:10:57;;;;;;;9.13;5.33;;;5.50;99.90;;;5.29;69.04;95339.41;5081525;28;20524;-55
2022/12/02 05:13:24;;;;;;;7.77;6.10;;;5.50;99.90;;;5.30;68.63;95337.63;5078623;28;20458;-56
2022/12/02 05:15:53;;;;;;;12.97;7.10;;;5.50;99.90;;;5.31;69.00;95341.94;5080754;28;20655;-54
2022/12/02 05:18:20;;;;;;;11.63;7.00;;;5.50;99.90;;;5.30;68.81;95343.72;5084679;28;20516;-57
2022/12/02 05:20:47;;;;;;;15.73;8.10;;;5.50;99.90;;;5.30;69.11;95346.31;5085193;28;20630;-54
2022/12/02 05:23:15;;;;;;;15.70;7.13;;;5.50;99.90;;;5.29;68.97;95339.41;5084385;28;20453;-54
2022/12/02 05:25:42;;;;;;;13.03;7.53;;;5.50;99.90;;;5.30;69.08;95338.50;5082256;28;20517;-58
2022/12/02 05:28:09;;;;;;;12.40;6.80;;;5.50;99.90;;;5.30;69.19;95346.31;5081127;28;20453;-53
2022/12/02 05:30:37;;;;;;;18.60;7.50;;;5.50;99.90;;;5.31;68.91;95352.34;5079964;28;20491;-55
2022/12/02 05:33:05;;;;;;;14.00;7.33;;;5.50;99.90;;;5.31;68.91;95355.78;5080098;28;20474;-54
2022/12/02 05:35:33;;;;;;;15.33;8.67;;;5.50;99.90;;;5.32;69.11;95344.44;5078630;28;21014;-57
2022/12/02 05:38:00;;;;;;;15.57;8.60;;;5.50;99.90;;;5.32;69.46;95341.81;5082022;28;20470;-57
2022/12/02 05:40:27;;;;;;;17.77;8.93;;;5.50;99.90;;;5.33;69.01;95358.31;5079585;28;20835;-55
2022/12/02 05:42:55;;;;;;;17.37;8.90;;;5.50;99.90;;;5.32;68.82;95357.47;5082829;28;20511;-55
2022/12/02 05:45:23;;;;;;;18.20;9.00;;;5.50;99.90;;;5.32;69.13;95357.47;5079087;28;20554;-55
2022/12/02 05:47:53;;;;;;;19.50;9.00;;;5.50;99.90;;;5.33;69.11;95361.78;5079049;28;20479;-54
2022/12/02 05:50:22;;;;;;;25.17;11.90;;;5.50;99.90;;;5.33;68.99;95363.53;5076819;28;20906;-55
2022/12/02 05:52:49;;;;;;;41.70;18.60;;;5.50;99.90;;;5.30;69.23;95359.34;5081343;28;20450;-57
2022/12/02 05:55:18;;;;;;;47.43;17.27;;;5.50;99.90;;;5.31;69.10;95361.00;5078442;28;20479;-55
2022/12/02 05:57:46;;;;;;;25.20;10.67;;;5.50;99.90;;;5.32;69.51;95362.69;5081414;28;20866;-56
2022/12/02 06:00:17;;;;;;;16.37;9.73;;;5.50;99.90;;;5.34;69.05;95370.41;5078536;28;20471;-55
2022/12/02 06:02:47;;;;;;;17.47;10.03;;;5.50;99.90;;;5.35;69.53;95372.94;5081498;28;20431;-55
2022/12/02 06:05:26;;;;;;;22.03;8.67;;;5.50;99.90;;;5.39;69.46;95378.78;5077625;28;20481;-56
2022/12/02 06:07:55;;;;;;;20.27;8.77;;;5.60;99.90;;;5.42;69.21;95378.59;5074274;28;20457;-57
2022/12/02 06:10:26;;;;;;;17.13;9.40;;;5.60;99.90;;;5.45;69.53;95386.22;5078608;28;20489;-56
2022/12/02 06:12:55;;;;;;;18.00;8.50;;;5.60;99.90;;;5.48;69.26;95390.44;5077590;28;20451;-56
2022/12/02 06:15:22;;;;;;;25.60;10.50;;;5.60;99.90;;;5.51;69.28;95390.25;5074237;28;20852;-56
2022/12/02 06:17:49;;;;;;;14.90;8.17;;;5.70;99.90;;;5.53;69.38;95386.63;5078745;28;20462;-55
2022/12/02 06:20:23;;;;;;;14.93;8.77;;;5.70;99.90;;;5.57;69.14;95393.28;5083110;28;20500;-56
2022/12/02 06:22:52;;;;;;;17.27;9.50;;;5.70;99.90;;;5.58;68.87;95391.53;5077797;28;20497;-56
2022/12/02 06:25:25;;;;;;;18.67;9.30;;;5.70;99.90;;;5.59;69.28;95390.59;5081502;28;20493;-55
2022/12/02 06:27:55;;;;;;;18.27;9.17;;;5.80;99.90;;;5.60;69.41;95394.88;5078212;28;20491;-57
2022/12/02 06:30:22;;;;;;;16.30;8.30;;;5.80;99.90;;;5.62;69.17;95387.78;5081598;28;20489;-56
2022/12/02 06:32:53;;;;;;;19.70;9.53;;;5.80;99.90;;;5.60;69.08;95389.66;5076878;28;21021;-55
2022/12/02 06:35:23;;;;;;;31.87;14.10;;;5.80;99.90;;;5.63;68.43;95391.25;5072205;28;20470;-55
2022/12/02 06:37:54;;;;;;;22.80;13.40;;;5.80;99.90;;;5.62;68.88;95392.19;5079060;28;20461;-55
2022/12/02 06:40:24;;;;;;;23.90;13.87;;;5.80;99.90;;;5.61;68.96;95399.19;5079914;28;20474;-54
2022/12/02 06:42:51;;;;;;;15.37;9.90;;;5.80;99.90;;;5.61;68.39;95399.19;5079772;28;20441;-57
2022/12/02 06:45:23;;;;;;;16.73;9.73;;;5.80;99.90;;;5.61;67.91;95399.19;5079644;28;20485;-59
2022/12/02 06:48:01;;;;;;;14.90;9.07;;;5.80;99.90;;;5.61;67.21;95401.78;5080373;28;20833;-56
2022/12/02 06:50:35;;;;;;;18.07;9.50;;;5.80;99.90;;;5.60;67.91;95405.31;5073296;28;20502;-54
2022/12/02 06:53:24;;;;;;;23.43;13.60;;;5.70;99.90;;;5.58;67.31;95401.97;5080645;28;20453;-56
2022/12/02 06:55:53;;;;;;;15.53;12.20;;;5.70;99.90;;;5.56;67.43;95403.81;5077675;28;20470;-55
2022/12/02 06:58:35;;;;;;;18.57;12.13;;;5.70;99.90;;;5.55;67.88;95410.00;5075842;28;20584;-56
2022/12/02 07:01:20;;;;;;;11.80;8.50;;;5.70;99.90;;;5.58;68.17;95415.03;5081030;28;20473;-54
2022/12/02 07:03:51;;;;;;;20.40;7.10;;;5.70;99.90;;;5.64;70.63;95408.56;5078941;28;20468;-56
2022/12/02 07:06:20;;;;;;;12.60;8.40;;;5.80;99.90;;;5.77;73.38;95411.25;5079570;28;20450;-56
2022/12/02 07:08:49;;;;;;;13.83;8.47;;;5.90;99.90;;;5.88;70.13;95403.56;5079003;28;20513;-54
2022/12/02 07:11:48;;;;;;;16.33;9.33;;;6.00;99.90;;;5.91;68.04;95404.22;5079454;28;20570;-55
2022/12/02 07:14:16;;;;;;;10.77;6.93;;;6.00;99.90;;;5.93;67.29;95404.09;5077236;28;20527;-61
2022/12/02 07:16:43;;;;;;;16.97;7.60;;;6.10;99.90;;;5.89;67.39;95413.91;5077985;28;20447;-56
2022/12/02 07:19:12;;;;;;;14.27;6.57;;;6.10;99.90;;;5.87;66.78;95422.78;5079333;28;20462;-56
2022/12/02 07:21:39;;;;;;;11.57;8.03;;;6.00;99.90;;;5.87;66.79;95422.78;5080812;28;20878;-56
2022/12/02 07:24:09;;;;;;;13.30;8.40;;;6.00;99.90;;;5.81;66.66;95416.19;5079254;28;20466;-54
2022/12/02 07:26:37;;;;;;;10.90;6.70;;;6.00;99.90;;;5.79;66.59;95419.81;5080647;28;20861;-56
2022/12/02 07:29:04;;;;;;;14.23;8.07;;;5.90;99.90;;;5.73;66.84;95419.28;5078057;28;21011;-55
2022/12/02 07:31:31;;;;;;;7.57;5.90;;;5.90;99.90;;;5.73;67.10;95418.41;5079744;28;20558;-55
2022/12/02 07:33:58;;;;;;;8.40;5.43;;;5.90;99.90;;;5.75;67.66;95416.56;5077450;28;20895;-55
2022/12/02 07:36:25;;;;;;;6.10;4.97;;;5.90;99.90;;;5.80;67.35;95418.91;5080129;28;20512;-55
2022/12/02 07:38:53;;;;;;;6.70;5.33;;;5.90;99.90;;;5.83;67.17;95429.16;5077900;28;20524;-52
2022/12/02 07:41:21;;;;;;;7.43;5.10;;;6.00;99.90;;;5.88;67.44;95437.50;5080589;28;21065;-55
2022/12/02 07:43:49;;;;;;;8.77;6.40;;;6.00;99.90;;;5.92;67.42;95433.78;5077691;28;20454;-56
2022/12/02 07:46:16;;;;;;;8.80;5.90;;;6.00;99.90;;;5.94;67.11;95437.13;5079946;28;20963;-55
2022/12/02 07:48:43;;;;;;;8.13;6.10;;;6.10;99.90;;;5.96;66.88;95429.19;5077619;28;20489;-56
2022/12/02 07:51:10;;;;;;;8.20;6.40;;;6.10;99.90;;;5.97;67.42;95436.13;5077288;28;20489;-57
2022/12/02 07:53:38;;;;;;;13.10;6.23;;;6.10;99.90;;;5.98;67.03;95438.66;5079092;28;20446;-56
2022/12/02 07:56:06;;;;;;;10.07;6.40;;;6.10;99.90;;;5.97;66.58;95436.97;5077404;28;20860;-55
2022/12/02 07:58:34;;;;;;;7.67;6.10;;;6.20;99.90;;;5.98;67.06;95435.19;5071074;28;20462;-56
2022/12/02 08:01:02;;;;;;;8.13;6.13;;;6.10;99.90;;;5.98;67.01;95435.19;5080720;28;20462;-57
2022/12/02 08:03:29;;;;;;;8.90;6.07;;;6.10;99.90;;;6.03;67.01;95438.34;5081410;28;20975;-55
2022/12/02 08:05:56;;;;;;;7.00;5.70;;;6.20;99.90;;;6.06;66.48;95435.53;5084135;28;20461;-52
2022/12/02 08:08:23;;;;;;;8.33;5.80;;;6.20;99.90;;;6.10;67.09;95439.63;5080240;28;20447;-56
2022/12/02 08:10:51;;;;;;;13.10;7.70;;;6.20;99.90;;;6.13;66.70;95442.03;5083702;28;20501;-56
2022/12/02 08:13:18;;;;;;;11.17;7.87;;;6.30;99.90;;;6.15;66.82;95440.19;5083943;28;20523;-56
2022/12/02 08:15:46;;;;;;;10.87;8.10;;;6.30;99.90;;;6.20;66.70;95448.53;5078369;28;20538;-54
2022/12/02 08:18:14;;;;;;;8.17;7.33;;;6.30;99.90;;;6.23;66.83;95439.69;5081383;28;20520;-56
2022/12/02 08:20:41;;;;;;;10.93;7.53;;;6.40;99.90;;;6.25;66.76;95445.63;5084388;28;20465;-55
2022/12/02 08:23:08;;;;;;;9.83;7.80;;;6.40;99.90;;;6.23;66.07;95439.69;5080912;28;20955;-56
2022/12/02 08:25:35;;;;;;;9.37;6.90;;;6.40;99.90;;;6.20;66.18;95442.50;5082820;28;20477;-56
2022/12/02 08:28:03;;;;;;;9.43;7.00;;;6.40;99.90;;;6.19;66.42;95451.25;5080355;28;20917;-58
2022/12/02 08:30:30;;;;;;;13.00;8.20;;;6.30;99.90;;;6.21;66.71;95449.38;5079880;28;20485;-55
2022/12/02 08:32:59;;;;;;;20.60;9.73;;;6.30;99.90;;;6.24;67.04;95447.41;5075850;28;20450;-56
2022/12/02 08:35:26;;;;;;;14.80;9.30;;;6.40;99.90;;;6.30;66.83;95448.78;5082319;28;20466;-56
2022/12/02 08:37:53;;;;;;;14.90;8.83;;;6.40;99.90;;;6.35;66.99;95454.56;5081129;28;20483;-55
2022/12/02 08:40:20;;;;;;;18.17;8.47;;;6.50;99.90;;;6.43;66.84;95461.91;5082714;28;20562;-56
2022/12/02 08:42:48;;;;;;;18.13;9.40;;;6.50;99.90;;;6.42;66.38;95462.84;5081297;28;20988;-57
2022/12/02 08:45:15;;;;;;;12.87;8.33;;;6.60;99.90;;;6.42;65.82;95462.84;5082155;28;20477;-56
2022/12/02 08:47:42;;;;;;;17.07;9.30;;;6.60;99.90;;;6.38;66.13;95459.59;5081579;28;20458;-58
2022/12/02 08:50:11;;;;;;;13.77;8.47;;;6.50;99.90;;;6.39;66.59;95458.63;5080543;28;20474;-54
2022/12/02 08:52:38;;;;;;;16.73;9.20;;;6.50;99.90;;;6.41;66.33;95458.53;5081917;28;20574;-54
2022/12/02 08:55:06;;;;;;;22.33;10.30;;;6.50;99.90;;;6.46;66.84;95461.72;5080124;28;20478;-55
2022/12/02 08:57:33;;;;;;;16.30;10.40;;;6.60;99.90;;;6.50;66.43;95459.72;5081728;28;20450;-54
2022/12/02 09:00:01;;;;;;;18.57;9.10;;;6.60;99.90;;;6.55;66.22;95462.84;5080104;28;20485;-56
2022/12/02 09:02:28;;;;;;;17.33;10.60;;;6.70;99.90;;;6.58;66.93;95462.66;5081731;28;20462;-53
2022/12/02 09:04:55;;;;;;;14.57;10.07;;;6.70;99.90;;;6.63;66.17;95461.44;5082494;28;20842;-53
2022/12/02 09:07:24;;;;;;;24.23;12.00;;;6.80;99.90;;;6.71;66.98;95471.38;5082050;28;20461;-56
2022/12/02 09:09:51;;;;;;;20.60;11.50;;;6.80;99.90;;;6.76;66.64;95466.69;5080208;28;20488;-54
2022/12/02 09:12:19;;;;;;;21.87;12.60;;;6.90;99.90;;;6.81;66.72;95463.75;5079734;28;21095;-55
2022/12/02 09:14:46;;;;;;;31.23;13.57;;;6.90;99.90;;;6.85;66.35;95459.16;5073162;28;20469;-55
2022/12/02 09:17:13;;;;;;;22.60;13.50;;;7.00;99.90;;;6.87;66.29;95446.84;5081801;28;20492;-56
2022/12/02 09:19:40;;;;;;;24.33;12.33;;;7.00;99.90;;;6.90;66.25;95457.91;5081640;28;20465;-56
2022/12/02 09:22:08;;;;;;;23.97;13.20;;;7.00;99.90;;;6.94;66.58;95455.91;5081889;28;20454;-55
2022/12/02 09:24:36;;;;;;;24.77;12.80;;;7.10;99.90;;;7.00;65.80;95455.50;5078844;28;20488;-53
2022/12/02 09:27:04;;;;;;;22.43;13.10;;;7.10;99.90;;;7.04;65.91;95454.38;5082258;28;20822;-57
2022/12/02 09:29:32;;;;;;;20.23;11.40;;;7.20;99.90;;;7.10;66.18;95451.34;5079431;28;20477;-57
2022/12/02 09:31:59;;;;;;;24.43;13.33;;;7.20;99.90;;;7.17;65.49;95449.13;5081089;28;21056;-57
2022/12/02 09:34:27;;;;;;;23.03;12.23;;;7.30;99.90;;;7.23;66.16;95445.28;5078636;28;20481;-54
2022/12/02 09:36:54;;;;;;;23.53;12.93;;;7.30;99.90;;;7.27;65.45;95446.75;5082534;28;20873;-57
2022/12/02 09:39:21;;;;;;;20.87;11.30;;;7.40;99.90;;;7.31;65.79;95449.03;5078743;28;20474;-56
2022/12/02 09:41:50;;;;;;;18.43;11.20;;;7.50;99.90;;;7.36;65.23;95451.34;5082806;28;20537;-55
2022/12/02 09:44:17;;;;;;;26.90;14.33;;;7.50;99.90;;;7.41;65.52;95445.78;5076249;28;20476;-57
2022/12/02 09:46:44;;;;;;;23.70;12.07;;;7.50;99.90;;;7.45;65.52;95444.63;5079131;28;20454;-56
2022/12/02 09:49:12;;;;;;;17.57;11.27;;;7.50;99.90;;;7.48;65.29;95437.41;5079340;28;20477;-54
2022/12/02 09:51:39;;;;;;;19.53;12.03;;;7.60;99.90;;;7.49;65.49;95439.06;5081774;28;20566;-56
2022/12/02 09:54:06;;;;;;;23.10;12.57;;;7.60;99.90;;;7.50;64.71;95432.91;5078966;28;20491;-53
2022/12/02 09:56:34;;;;;;;25.00;12.60;;;7.60;99.90;;;7.54;65.10;95434.38;5078049;28;20454;-56
2022/12/02 09:59:02;;;;;;;21.50;12.40;;;7.70;99.90;;;7.58;65.31;95431.53;5078663;28;21171;-55
2022/12/02 10:01:29;;;;;;;22.70;13.03;;;7.70;99.90;;;7.62;65.39;95432.97;5081174;28;20802;-55
2022/12/02 10:03:57;;;;;;;29.40;13.63;;;7.70;99.90;;;7.67;65.19;95430.88;5080398;28;20634;-55
2022/12/02 10:06:26;;;;;;;22.20;12.50;;;7.80;99.90;;;7.71;64.92;95425.31;5081553;28;20973;-58
2022/12/02 10:08:54;;;;;;;22.60;13.63;;;7.80;99.90;;;7.76;64.82;95429.38;5079941;28;20477;-57
2022/12/02 10:11:23;;;;;;;23.57;13.00;;;7.90;99.90;;;7.77;64.64;95431.91;5078344;28;20487;-56
2022/12/02 10:13:51;;;;;;;21.37;12.80;;;7.90;99.90;;;7.78;64.40;95423.09;5080469;28;20450;-56
2022/12/02 10:16:19;;;;;;;23.23;13.10;;;7.90;99.90;;;7.81;64.83;95432.53;5075070;28;20473;-54
2022/12/02 10:18:47;;;;;;;25.27;13.97;;;7.90;99.90;;;7.79;64.44;95430.03;5075540;28;20450;-56
2022/12/02 10:21:14;;;;;;;23.17;13.93;;;7.90;99.90;;;7.75;64.64;95427.72;5073101;28;20501;-56
2022/12/02 10:23:56;;;;;;;24.47;15.47;;;7.90;99.90;;;7.76;64.90;95424.16;5075290;28;20899;-56
2022/12/02 10:26:24;;;;;;;25.80;14.83;;;7.90;99.90;;;7.75;64.44;95423.31;5073100;28;20978;-58
2022/12/02 10:29:03;;;;;;;24.50;14.10;;;7.90;99.90;;;7.77;64.85;95420.59;5073299;28;20455;-55
2022/12/02 10:31:32;;;;;;;29.23;14.97;;;7.90;99.90;;;7.80;64.79;95420.38;5074498;28;20482;-55
2022/12/02 10:34:01;;;;;;;29.10;15.77;;;7.90;99.90;;;7.80;64.49;95418.59;5070918;28;21006;-55
2022/12/02 10:36:35;;;;;;;31.07;15.57;;;7.90;99.90;;;7.82;64.22;95421.94;5075929;28;20738;-54